Time;durP1;ratioP1;P1;durP2;ratioP2;P2;SDS_P1;SDS_P2;PMS_P1;PMS_P2;Temp;Humidity;BMP_temperature;BMP_pressure;BME280_temperature;BME280_humidity;BME280_pressure;Samples;Min_cycle;Max_cycle;Signal;HPM_P1;HPM_P2
2020/12/01 00:01:55;;;;;;;1.90;1.33;;;8.40;66.90;;;;;;4946968;28;20071;-76
2020/12/01 00:04:21;;;;;;;1.67;1.25;;;8.50;67.00;;;;;;4943668;28;20058;-76
2020/12/01 00:06:46;;;;;;;1.70;1.17;;;8.50;66.90;;;;;;4946999;28;20082;-74
2020/12/01 00:09:13;;;;;;;2.67;1.73;;;8.40;66.90;;;;;;4947825;28;20515;-76
2020/12/01 00:11:38;;;;;;;1.55;1.27;;;8.40;66.90;;;;;;4941382;28;20594;-76
2020/12/01 00:14:04;;;;;;;1.65;1.25;;;8.40;66.90;;;;;;4948505;28;20134;-76
2020/12/01 00:16:30;;;;;;;1.48;1.25;;;8.40;66.90;;;;;;4948993;28;20110;-76
2020/12/01 00:18:56;;;;;;;2.05;1.65;;;8.50;67.00;;;;;;4938752;28;20125;-76
2020/12/01 00:21:22;;;;;;;1.55;1.42;;;8.50;67.00;;;;;;4948552;28;20388;-76
2020/12/01 00:23:48;;;;;;;1.73;1.17;;;8.50;67.00;;;;;;4961116;28;20053;-76
2020/12/01 00:26:18;;;;;;;1.55;1.45;;;8.50;67.10;;;;;;4942104;28;20028;-76
2020/12/01 00:28:44;;;;;;;2.42;1.60;;;8.50;67.20;;;;;;4935214;28;20055;-76
2020/12/01 00:31:10;;;;;;;1.90;1.60;;;8.60;67.20;;;;;;4942550;28;20118;-76
2020/12/01 00:33:35;;;;;;;2.15;1.77;;;8.50;67.10;;;;;;4941536;28;20114;-76
2020/12/01 00:36:01;;;;;;;1.88;1.42;;;8.60;67.10;;;;;;4939913;28;20043;-75
2020/12/01 00:38:26;;;;;;;2.17;1.67;;;8.60;67.10;;;;;;4938978;28;20078;-76
2020/12/01 00:40:52;;;;;;;1.92;1.73;;;8.60;67.10;;;;;;4940842;28;20035;-76
2020/12/01 00:43:18;;;;;;;2.03;1.58;;;8.60;67.10;;;;;;4946782;28;20031;-76
2020/12/01 00:45:44;;;;;;;1.80;1.60;;;8.80;67.20;;;;;;4945894;28;20023;-76
2020/12/01 00:48:14;;;;;;;2.17;1.63;;;8.70;67.20;;;;;;4947384;28;20038;-76
2020/12/01 00:50:40;;;;;;;2.00;1.80;;;8.70;67.20;;;;;;4946586;28;20380;-77
2020/12/01 00:53:05;;;;;;;1.95;1.55;;;8.70;67.20;;;;;;4946224;28;20032;-76
2020/12/01 00:55:31;;;;;;;2.28;2.00;;;8.70;67.20;;;;;;4948244;28;20031;-75
2020/12/01 00:57:57;;;;;;;2.05;1.63;;;8.70;67.20;;;;;;4942876;28;20027;-76
2020/12/01 01:00:26;;;;;;;2.47;2.10;;;8.70;67.20;;;;;;4948324;28;20019;-76
2020/12/01 01:02:51;;;;;;;1.75;1.65;;;8.70;67.30;;;;;;4937681;28;20063;-76
2020/12/01 01:05:18;;;;;;;2.03;1.67;;;8.70;67.30;;;;;;4943137;28;20031;-76
2020/12/01 01:07:43;;;;;;;2.28;2.05;;;8.70;67.30;;;;;;4948164;28;20361;-76
2020/12/01 01:10:16;;;;;;;2.80;1.98;;;8.70;67.30;;;;;;4946175;28;20034;-76
2020/12/01 01:12:42;;;;;;;4.25;2.95;;;8.80;67.60;;;;;;4943550;28;20034;-76
2020/12/01 01:15:08;;;;;;;2.38;1.98;;;8.80;67.40;;;;;;4946140;28;20405;-77
2020/12/01 01:17:33;;;;;;;2.90;2.00;;;8.80;67.40;;;;;;4946935;28;20043;-76
2020/12/01 01:19:59;;;;;;;2.45;1.98;;;8.80;67.40;;;;;;4942484;28;20027;-77
2020/12/01 01:22:24;;;;;;;2.55;1.75;;;8.90;67.50;;;;;;4949114;28;20122;-76
2020/12/01 01:24:50;;;;;;;1.90;1.67;;;8.90;67.50;;;;;;4963554;28;20042;-76
2020/12/01 01:27:15;;;;;;;2.53;1.83;;;8.90;67.50;;;;;;4951903;28;20038;-76
2020/12/01 01:29:40;;;;;;;2.10;1.70;;;8.90;67.50;;;;;;4947377;28;20086;-75
2020/12/01 01:32:06;;;;;;;3.25;2.40;;;8.90;67.50;;;;;;4949233;28;20508;-76
2020/12/01 01:34:31;;;;;;;3.10;2.15;;;8.80;67.50;;;;;;4937671;28;20042;-76
2020/12/01 01:36:57;;;;;;;2.85;1.88;;;8.90;67.50;;;;;;4939939;28;20476;-76
2020/12/01 01:39:22;;;;;;;3.15;2.00;;;9.00;67.60;;;;;;4946485;28;20038;-76
2020/12/01 01:41:48;;;;;;;2.55;2.03;;;9.00;67.60;;;;;;4943269;28;20489;-76
2020/12/01 01:44:27;;;;;;;1.90;1.67;;;8.90;67.50;;;;;;4943791;28;20774;-76
2020/12/01 01:46:55;;;;;;;2.30;1.88;;;9.00;67.80;;;;;;4948481;28;20388;-76
2020/12/01 01:49:28;;;;;;;1.90;1.60;;;9.00;67.60;;;;;;4938003;28;20122;-77
2020/12/01 01:51:56;;;;;;;2.55;1.70;;;9.00;67.60;;;;;;4947640;28;20034;-76
2020/12/01 01:54:25;;;;;;;1.73;1.60;;;9.10;67.80;;;;;;4945275;28;20030;-76
2020/12/01 01:56:55;;;;;;;1.73;1.63;;;9.10;67.70;;;;;;4943891;28;20122;-76
2020/12/01 01:59:22;;;;;;;1.90;1.70;;;9.10;67.70;;;;;;4951192;28;20142;-76
2020/12/01 02:01:50;;;;;;;2.08;1.80;;;9.00;67.60;;;;;;4949784;28;20035;-76
2020/12/01 02:04:15;;;;;;;1.80;1.60;;;9.10;67.70;;;;;;4940792;28;20395;-76
2020/12/01 02:06:47;;;;;;;1.88;1.55;;;9.10;67.70;;;;;;4950659;28;20131;-76
2020/12/01 02:09:27;;;;;;;2.08;1.77;;;9.10;67.70;;;;;;4949537;28;20119;-76
2020/12/01 02:11:55;;;;;;;1.55;1.45;;;9.10;67.80;;;;;;4945728;28;20028;-76
2020/12/01 02:14:32;;;;;;;1.65;1.40;;;9.10;67.60;;;;;;4948226;28;20043;-75
2020/12/01 02:17:24;;;;;;;1.50;1.38;;;9.10;67.70;;;;;;4947511;28;20024;-76
2020/12/01 02:19:51;;;;;;;1.77;1.67;;;9.20;68.10;;;;;;4942703;28;20062;-76
2020/12/01 02:22:20;;;;;;;1.92;1.63;;;9.20;67.70;;;;;;4949280;28;20505;-76
2020/12/01 02:24:46;;;;;;;1.90;1.70;;;9.20;67.80;;;;;;4949663;28;20048;-75
2020/12/01 02:27:15;;;;;;;1.80;1.65;;;9.20;67.80;;;;;;4947236;28;20032;-76
2020/12/01 02:29:45;;;;;;;1.65;1.33;;;9.20;67.80;;;;;;4950372;28;20035;-76
2020/12/01 02:32:12;;;;;;;1.80;1.57;;;9.20;67.80;;;;;;4947287;28;20110;-76
2020/12/01 02:34:42;;;;;;;1.58;1.48;;;9.30;67.80;;;;;;4939739;28;20035;-76
2020/12/01 02:37:09;;;;;;;1.67;1.58;;;9.20;67.70;;;;;;4938141;28;20035;-76
2020/12/01 02:39:35;;;;;;;1.75;1.63;;;9.30;67.80;;;;;;4941983;28;20039;-76
2020/12/01 02:42:04;;;;;;;1.92;1.67;;;9.30;67.70;;;;;;4949185;28;20843;-76
2020/12/01 02:44:29;;;;;;;1.60;1.40;;;9.20;67.80;;;;;;4955137;28;20113;-75
2020/12/01 02:47:02;;;;;;;1.98;1.58;;;9.30;67.80;;;;;;4946656;28;20454;-76
2020/12/01 02:49:27;;;;;;;1.50;1.38;;;9.30;68.00;;;;;;4938569;28;20058;-76
2020/12/01 02:51:53;;;;;;;1.42;1.33;;;9.30;67.90;;;;;;4950282;28;20492;-76
2020/12/01 02:54:18;;;;;;;1.95;1.65;;;9.30;68.00;;;;;;4948367;28;20027;-76
2020/12/01 02:56:45;;;;;;;1.58;1.38;;;9.40;68.00;;;;;;4946698;28;20123;-76
2020/12/01 02:59:12;;;;;;;1.30;1.20;;;9.40;68.00;;;;;;4948011;28;20027;-76
2020/12/01 03:01:37;;;;;;;1.73;1.35;;;9.30;68.00;;;;;;4949101;28;20062;-76
2020/12/01 03:04:03;;;;;;;1.30;1.20;;;9.30;68.00;;;;;;4944634;28;20568;-76
2020/12/01 03:06:28;;;;;;;1.35;1.25;;;9.40;68.00;;;;;;4947767;28;20035;-76
2020/12/01 03:08:54;;;;;;;1.20;1.10;;;9.40;68.00;;;;;;4949448;28;20034;-76
2020/12/01 03:11:19;;;;;;;1.50;1.33;;;9.40;68.00;;;;;;4947007;28;20046;-76
2020/12/01 03:13:45;;;;;;;2.38;1.20;;;9.40;68.00;;;;;;4948763;28;20026;-76
2020/12/01 03:16:11;;;;;;;1.20;1.10;;;9.40;68.00;;;;;;4948713;28;20042;-76
2020/12/01 03:18:39;;;;;;;1.48;1.25;;;9.40;68.00;;;;;;4944255;28;20122;-76
2020/12/01 03:21:06;;;;;;;1.30;1.20;;;9.40;68.00;;;;;;4950001;28;20067;-76
2020/12/01 03:23:32;;;;;;;1.45;1.35;;;9.40;68.00;;;;;;4947613;28;20031;-76
2020/12/01 03:25:58;;;;;;;1.50;1.40;;;9.40;68.00;;;;;;4949498;28;20428;-76
2020/12/01 03:28:24;;;;;;;1.92;1.67;;;9.50;68.70;;;;;;4946417;28;20035;-76
2020/12/01 03:30:49;;;;;;;1.58;1.48;;;9.50;68.20;;;;;;4949076;28;20361;-76
2020/12/01 03:33:15;;;;;;;1.55;1.45;;;9.60;68.20;;;;;;4937397;28;20028;-75
2020/12/01 03:35:41;;;;;;;1.63;1.35;;;9.50;68.20;;;;;;4938717;28;20114;-76
2020/12/01 03:38:06;;;;;;;1.50;1.38;;;9.50;68.20;;;;;;4939420;28;20123;-76
2020/12/01 03:40:32;;;;;;;1.33;1.23;;;9.50;68.20;;;;;;4937456;28;20078;-76
2020/12/01 03:42:57;;;;;;;1.38;1.27;;;9.60;68.20;;;;;;4943524;28;20077;-76
2020/12/01 03:45:23;;;;;;;1.25;1.15;;;9.60;68.20;;;;;;4946599;28;20027;-76
2020/12/01 03:47:53;;;;;;;1.50;1.40;;;9.60;68.20;;;;;;4945121;28;20042;-76
2020/12/01 03:50:19;;;;;;;1.30;1.00;;;9.60;68.30;;;;;;4946256;28;20077;-76
2020/12/01 03:52:44;;;;;;;1.40;1.17;;;9.60;68.20;;;;;;4949035;28;20106;-76
2020/12/01 03:55:09;;;;;;;1.60;1.50;;;9.60;68.20;;;;;;4948429;28;21324;-76
2020/12/01 03:57:40;;;;;;;1.33;1.17;;;9.60;68.20;;;;;;4939320;28;20045;-76
2020/12/01 04:00:11;;;;;;;1.52;1.35;;;9.60;68.20;;;;;;4948636;28;20031;-75
2020/12/01 04:02:37;;;;;;;;;;;9.70;68.40;;;;;;4945230;28;20046;-76
2020/12/01 04:05:04;;;;;;;0.98;0.93;;;9.60;69.00;;;;;;4945593;28;19957;-77
2020/12/01 04:07:30;;;;;;;1.15;0.90;;;9.70;68.10;;;;;;4946250;28;20100;-75
2020/12/01 04:09:57;;;;;;;1.27;1.17;;;9.60;68.10;;;;;;4948945;28;20035;-76
2020/12/01 04:12:23;;;;;;;1.38;1.08;;;9.60;68.20;;;;;;4944417;28;20448;-76
2020/12/01 04:14:49;;;;;;;1.33;1.23;;;9.70;68.30;;;;;;4947780;28;20031;-76
2020/12/01 04:17:14;;;;;;;1.52;1.40;;;9.70;68.30;;;;;;4948339;28;20362;-76
2020/12/01 04:19:41;;;;;;;1.35;1.15;;;9.70;68.40;;;;;;4942018;28;20085;-76
2020/12/01 04:22:06;;;;;;;1.45;1.30;;;9.70;68.30;;;;;;4947925;28;20031;-76
2020/12/01 04:24:32;;;;;;;1.20;1.08;;;9.70;68.40;;;;;;4947002;28;20035;-76
2020/12/01 04:26:57;;;;;;;1.17;1.08;;;9.80;68.40;;;;;;4944843;28;20031;-76
2020/12/01 04:29:23;;;;;;;1.23;1.13;;;9.70;68.40;;;;;;4946736;28;20027;-76
2020/12/01 04:31:49;;;;;;;1.42;1.33;;;9.70;68.40;;;;;;4944749;28;20032;-76
2020/12/01 04:34:14;;;;;;;1.48;1.38;;;9.80;68.40;;;;;;4936981;28;20596;-76
2020/12/01 04:36:40;;;;;;;1.33;1.23;;;9.70;68.30;;;;;;4941850;28;20028;-77
2020/12/01 04:39:05;;;;;;;1.55;1.38;;;9.80;68.40;;;;;;4947917;28;20031;-76
2020/12/01 04:41:31;;;;;;;1.17;1.08;;;9.80;68.40;;;;;;4945299;28;20377;-76
2020/12/01 04:44:00;;;;;;;1.50;1.38;;;9.80;68.40;;;;;;4947862;28;20166;-76
2020/12/01 04:46:29;;;;;;;1.48;1.30;;;9.80;68.40;;;;;;4942890;28;20031;-76
2020/12/01 04:49:04;;;;;;;1.25;1.15;;;9.80;68.40;;;;;;4942844;28;20043;-76
2020/12/01 04:51:45;;;;;;;1.30;1.20;;;9.80;68.50;;;;;;4943295;28;20070;-76
2020/12/01 04:54:29;;;;;;;;;;;9.80;68.70;;;;;;4949609;28;20027;-76
2020/12/01 04:57:40;;;;;;;1.40;1.30;;;9.80;69.10;;;;;;4944654;28;19938;-76
2020/12/01 05:00:27;;;;;;;0.80;0.80;;;9.80;68.80;;;;;;4946765;28;20039;-76
2020/12/01 05:03:20;;;;;;;1.13;1.02;;;9.80;68.30;;;;;;4933268;29;20051;-76
2020/12/01 05:08:37;;;;;;;1.45;1.33;;;9.80;68.40;;;;;;4947113;28;20040;-76
2020/12/01 05:11:16;;;;;;;1.30;1.20;;;9.80;68.80;;;;;;4944404;28;20023;-75
2020/12/01 05:13:45;;;;;;;1.10;0.90;;;9.80;68.60;;;;;;4944289;28;20039;-76
2020/12/01 05:16:27;;;;;;;1.35;1.25;;;9.80;68.60;;;;;;4947241;28;20051;-75
2020/12/01 05:18:53;;;;;;;1.33;1.23;;;9.90;69.10;;;;;;4937923;28;20042;-76
2020/12/01 05:21:24;;;;;;;1.95;1.38;;;9.80;68.60;;;;;;4948632;28;20035;-74
2020/12/01 05:23:50;;;;;;;1.55;1.35;;;9.80;68.80;;;;;;4945622;28;20042;-75
2020/12/01 05:26:19;;;;;;;1.67;1.58;;;9.90;68.70;;;;;;4944213;28;20027;-74
2020/12/01 05:28:49;;;;;;;1.85;1.33;;;9.90;68.80;;;;;;4945632;28;20042;-74
2020/12/01 05:31:18;;;;;;;1.40;1.30;;;9.90;68.90;;;;;;4947544;28;20047;-74
2020/12/01 05:33:44;;;;;;;1.65;1.50;;;9.90;68.80;;;;;;4938131;28;20055;-75
2020/12/01 05:36:28;;;;;;;1.58;1.33;;;9.90;68.70;;;;;;4941584;28;20040;-75
2020/12/01 05:39:04;;;;;;;1.48;1.35;;;10.00;69.20;;;;;;4942658;28;20039;-75
2020/12/01 05:41:36;;;;;;;1.25;1.15;;;10.00;68.90;;;;;;4922870;28;20055;-75
2020/12/01 05:44:06;;;;;;;1.52;1.40;;;10.00;68.90;;;;;;4927567;29;20082;-75
2020/12/01 05:46:41;;;;;;;1.35;1.25;;;10.00;68.90;;;;;;4932825;28;20055;-75
2020/12/01 05:49:42;;;;;;;1.90;1.70;;;10.00;68.90;;;;;;4921411;29;20069;-75
2020/12/01 05:52:14;;;;;;;;;;;10.00;69.30;;;;;;4919222;29;20677;-74
2020/12/01 05:54:42;;;;;;;0.80;0.80;;;10.10;69.60;;;;;;4919026;29;19911;-76
2020/12/01 05:57:23;;;;;;;1.42;1.20;;;10.10;68.60;;;;;;4928256;29;20040;-77
2020/12/01 05:59:56;;;;;;;1.10;1.00;;;10.00;69.00;;;;;;4926765;29;20035;-75
2020/12/01 06:02:40;;;;;;;1.55;1.33;;;10.00;68.80;;;;;;4926947;29;20086;-75
2020/12/01 06:05:09;;;;;;;1.48;1.30;;;10.10;69.30;;;;;;4933382;28;20382;-75
2020/12/01 06:07:36;;;;;;;1.33;1.17;;;10.10;68.90;;;;;;4925580;29;20501;-75
2020/12/01 06:10:25;;;;;;;1.65;1.08;;;10.10;68.90;;;;;;4930045;29;20519;-75
2020/12/01 06:13:13;;;;;;;1.40;1.30;;;10.10;69.40;;;;;;4945109;28;20122;-76
2020/12/01 06:15:49;;;;;;;1.70;1.27;;;10.10;69.20;;;;;;4936760;28;20036;-76
2020/12/01 06:18:30;;;;;;;2.22;1.13;;;10.10;68.90;;;;;;4948363;28;20047;-76
2020/12/01 06:21:06;;;;;;;1.70;1.45;;;10.20;69.10;;;;;;4960443;28;20682;-76
2020/12/01 06:23:59;;;;;;;1.35;1.25;;;10.20;69.20;;;;;;4943132;28;20035;-77
2020/12/01 06:26:52;;;;;;;1.33;1.23;;;10.20;69.40;;;;;;4951039;28;20046;-76
2020/12/01 06:29:54;;;;;;;1.17;1.08;;;10.20;69.40;;;;;;4950657;28;20382;-77
2020/12/01 06:32:38;;;;;;;1.42;1.33;;;10.20;69.30;;;;;;4935829;28;20454;-77
2020/12/01 06:35:42;;;;;;;1.35;1.25;;;10.20;69.30;;;;;;4921989;29;20493;-77
2020/12/01 06:38:24;;;;;;;1.08;0.98;;;10.20;69.20;;;;;;4941039;28;20031;-76
2020/12/01 06:41:07;;;;;;;1.23;1.10;;;10.20;69.10;;;;;;4939893;28;20036;-77
2020/12/01 06:43:39;;;;;;;1.75;1.42;;;10.20;69.20;;;;;;4942450;28;20450;-77
2020/12/01 06:46:25;;;;;;;2.38;2.15;;;10.30;69.00;;;;;;4949100;28;20040;-76
2020/12/01 06:48:52;;;;;;;2.42;2.05;;;10.20;69.30;;;;;;4945656;28;20411;-77
2020/12/01 06:51:18;;;;;;;2.33;1.90;;;10.30;69.00;;;;;;4949168;28;20024;-77
2020/12/01 06:53:44;;;;;;;1.95;1.75;;;10.20;69.00;;;;;;4940063;28;20031;-76
2020/12/01 06:56:17;;;;;;;3.08;2.42;;;10.20;69.00;;;;;;4939604;28;20038;-76
2020/12/01 06:58:48;;;;;;;3.05;2.60;;;10.30;69.20;;;;;;4950229;28;20062;-77
2020/12/01 07:01:22;;;;;;;3.45;3.13;;;10.20;69.10;;;;;;4928646;28;20476;-77
2020/12/01 07:04:01;;;;;;;3.20;2.35;;;10.30;69.40;;;;;;4928148;28;20039;-75
2020/12/01 07:06:27;;;;;;;2.55;2.15;;;10.30;69.50;;;;;;4936116;28;20571;-75
2020/12/01 07:09:03;;;;;;;3.13;2.53;;;10.40;69.20;;;;;;4934170;28;20063;-75
2020/12/01 07:11:32;;;;;;;2.17;1.98;;;10.30;69.10;;;;;;4941010;28;20509;-75
2020/12/01 07:14:01;;;;;;;1.85;1.65;;;10.40;69.20;;;;;;4937870;28;20086;-75
2020/12/01 07:16:32;;;;;;;1.95;1.70;;;10.40;69.20;;;;;;4937960;28;20493;-74
2020/12/01 07:19:12;;;;;;;1.90;1.73;;;10.40;69.20;;;;;;4935879;28;20047;-75
2020/12/01 07:22:27;;;;;;;1.90;1.80;;;10.40;69.30;;;;;;4954065;28;20036;-75
2020/12/01 07:25:04;;;;;;;1.55;1.40;;;10.40;69.60;;;;;;4883838;29;20422;-76
2020/12/01 07:27:46;;;;;;;1.50;1.27;;;10.50;69.40;;;;;;4938903;28;20039;-75
2020/12/01 07:30:19;;;;;;;1.88;1.55;;;10.50;69.30;;;;;;4936053;28;20441;-75
2020/12/01 07:32:45;;;;;;;2.58;1.80;;;10.40;69.20;;;;;;4937723;28;20123;-75
2020/12/01 07:35:29;;;;;;;2.35;1.83;;;10.40;69.10;;;;;;4939347;28;20560;-77
2020/12/01 07:38:10;;;;;;;2.00;1.80;;;10.40;69.20;;;;;;4940395;28;20149;-76
2020/12/01 07:40:45;;;;;;;2.45;2.08;;;10.50;69.60;;;;;;4939152;28;20102;-77
2020/12/01 07:43:13;;;;;;;1.88;1.67;;;10.50;69.30;;;;;;4937911;28;20401;-76
2020/12/01 07:45:39;;;;;;;2.10;1.70;;;10.50;69.20;;;;;;4939716;28;20036;-77
2020/12/01 07:48:04;;;;;;;2.45;2.25;;;10.50;69.20;;;;;;4934310;28;20039;-77
2020/12/01 07:50:32;;;;;;;1.70;1.52;;;10.50;69.20;;;;;;4938158;28;20031;-76
2020/12/01 07:53:01;;;;;;;1.95;1.77;;;10.50;69.20;;;;;;4936331;28;20020;-78
2020/12/01 07:55:39;;;;;;;2.10;1.90;;;10.50;69.30;;;;;;4938026;28;20090;-76
2020/12/01 07:58:20;;;;;;;1.70;1.55;;;10.50;69.50;;;;;;4936385;28;20035;-77
2020/12/01 08:00:57;;;;;;;2.42;2.20;;;10.50;69.60;;;;;;4939877;28;20241;-77
2020/12/01 08:03:26;;;;;;;2.47;2.28;;;10.50;69.40;;;;;;4936332;28;20055;-77
2020/12/01 08:05:52;;;;;;;2.15;1.65;;;10.60;69.30;;;;;;4935996;28;20086;-77
2020/12/01 08:08:21;;;;;;;2.13;1.92;;;10.60;69.30;;;;;;4937220;28;20488;-76
2020/12/01 08:10:48;;;;;;;2.10;1.90;;;10.60;69.30;;;;;;4938908;28;20063;-77
2020/12/01 08:13:16;;;;;;;2.88;2.20;;;10.50;69.20;;;;;;4934772;28;20027;-77
2020/12/01 08:15:43;;;;;;;2.95;2.17;;;10.50;69.20;;;;;;4939484;28;20039;-76
2020/12/01 08:18:13;;;;;;;2.83;2.28;;;10.50;69.20;;;;;;4935549;28;20036;-76
2020/12/01 08:20:40;;;;;;;2.60;2.40;;;10.50;69.30;;;;;;4939903;28;20032;-75
2020/12/01 08:23:11;;;;;;;2.80;2.33;;;10.50;69.20;;;;;;4937945;28;20271;-75
2020/12/01 08:25:37;;;;;;;2.80;2.22;;;10.50;69.20;;;;;;4938222;28;20382;-75
2020/12/01 08:28:40;;;;;;;3.30;2.58;;;10.60;69.20;;;;;;4933499;28;20031;-77
2020/12/01 08:31:27;;;;;;;2.78;2.40;;;10.50;70.00;;;;;;4887487;29;20099;-77
2020/12/01 08:34:08;;;;;;;3.03;2.00;;;10.50;69.30;;;;;;4937361;28;20504;-76
2020/12/01 08:37:00;;;;;;;2.05;1.85;;;10.60;69.30;;;;;;4938199;28;20095;-77
2020/12/01 08:39:49;;;;;;;2.00;1.80;;;10.50;69.50;;;;;;4942020;28;20108;-76
2020/12/01 08:42:41;;;;;;;2.10;1.50;;;10.50;69.10;;;;;;4935506;28;20039;-76
2020/12/01 08:45:36;;;;;;;1.77;1.40;;;10.50;69.50;;;;;;4938453;28;20031;-75
2020/12/01 08:48:05;;;;;;;2.17;1.60;;;10.50;69.70;;;;;;4935463;28;20058;-76
2020/12/01 08:50:35;;;;;;;2.47;1.77;;;10.50;69.20;;;;;;4951635;28;20127;-76
2020/12/01 08:53:14;;;;;;;1.90;1.60;;;10.50;69.30;;;;;;4939793;28;20511;-77
2020/12/01 08:55:42;;;;;;;1.88;1.67;;;10.50;69.40;;;;;;4939112;28;20622;-78
2020/12/01 08:58:23;;;;;;;1.73;1.50;;;10.50;69.40;;;;;;4937511;28;20144;-77
2020/12/01 09:01:17;;;;;;;1.98;1.48;;;10.50;69.70;;;;;;4939388;28;20035;-77
2020/12/01 09:03:59;;;;;;;2.05;1.50;;;10.50;70.00;;;;;;4935586;28;20054;-78
2020/12/01 09:06:34;;;;;;;2.72;1.52;;;10.50;70.00;;;;;;4940794;28;20499;-78
2020/12/01 09:09:17;;;;;;;1.85;1.50;;;10.50;69.80;;;;;;4942882;28;20032;-77
2020/12/01 09:12:04;;;;;;;2.33;1.77;;;10.60;69.70;;;;;;4940909;28;20032;-77
2020/12/01 09:23:17;;;;;;;2.97;2.22;;;10.60;69.60;;;;;;4938569;28;20086;-76
2020/12/01 09:25:45;;;;;;;2.28;1.63;;;10.70;69.90;;;;;;4938476;28;20035;-76
2020/12/01 09:28:19;;;;;;;4.38;1.80;;;10.60;69.60;;;;;;4938266;28;20051;-75
2020/12/01 09:30:45;;;;;;;2.20;1.70;;;10.60;69.80;;;;;;4939044;28;20043;-76
2020/12/01 09:33:14;;;;;;;2.25;1.73;;;10.60;69.60;;;;;;4935394;28;20032;-76
2020/12/01 09:35:41;;;;;;;2.25;1.60;;;10.70;69.60;;;;;;4931861;28;20035;-75
2020/12/01 09:38:06;;;;;;;2.00;1.40;;;10.70;69.60;;;;;;4939002;28;20031;-76
2020/12/01 09:40:34;;;;;;;1.63;1.30;;;10.60;69.60;;;;;;4936090;28;20036;-76
2020/12/01 09:43:10;;;;;;;1.52;1.33;;;10.60;69.60;;;;;;4936079;28;20501;-76
2020/12/01 09:45:38;;;;;;;1.88;1.50;;;10.70;69.70;;;;;;4939802;28;20039;-76
2020/12/01 09:48:13;;;;;;;2.20;1.88;;;10.70;69.70;;;;;;4939077;28;20565;-76
2020/12/01 09:50:39;;;;;;;1.85;1.50;;;10.80;69.80;;;;;;4941382;28;20087;-76
2020/12/01 10:02:52;;;;;;;2.40;1.33;;;10.70;69.70;;;;;;4941434;28;20501;-75
2020/12/01 10:09:14;;;;;;;2.10;1.65;;;10.80;69.70;;;;;;4940052;28;20065;-76
2020/12/01 10:25:45;;;;;;;1.73;1.63;;;10.80;69.50;;;;;;4940608;28;20034;-75
2020/12/01 10:29:44;;;;;;;2.70;1.83;;;10.80;69.40;;;;;;4917672;28;20039;-75
2020/12/01 10:34:28;;;;;;;2.10;1.77;;;10.80;69.40;;;;;;4889670;29;20040;-76
2020/12/01 10:36:55;;;;;;;1.83;1.70;;;10.90;69.30;;;;;;4906208;29;20052;-75
2020/12/01 10:39:21;;;;;;;2.03;1.77;;;10.80;69.20;;;;;;4914669;28;20050;-76
2020/12/01 10:41:47;;;;;;;2.83;2.20;;;10.70;69.10;;;;;;4924136;28;20123;-76
2020/12/01 10:44:13;;;;;;;1.90;1.70;;;10.70;69.20;;;;;;4920110;29;20039;-75
2020/12/01 10:46:39;;;;;;;2.30;1.88;;;10.70;69.30;;;;;;4924025;28;20100;-76
2020/12/01 10:49:05;;;;;;;2.47;2.20;;;10.70;69.90;;;;;;4926933;28;20047;-76
2020/12/01 10:51:32;;;;;;;2.45;2.15;;;10.70;69.50;;;;;;4947073;28;20042;-76
2020/12/01 10:53:58;;;;;;;1.95;1.80;;;10.80;69.60;;;;;;4921185;28;20095;-75
2020/12/01 10:56:24;;;;;;;2.40;2.20;;;10.70;69.60;;;;;;4924715;29;20028;-76
2020/12/01 10:58:49;;;;;;;2.05;1.52;;;10.70;69.60;;;;;;4920575;29;20042;-75
2020/12/01 11:01:15;;;;;;;1.88;1.27;;;10.70;69.60;;;;;;4921291;29;20493;-75
2020/12/01 11:03:40;;;;;;;2.13;1.70;;;10.70;69.70;;;;;;4918164;29;20083;-75
2020/12/01 11:06:06;;;;;;;1.90;1.45;;;10.70;69.70;;;;;;4923386;29;20032;-74
2020/12/01 11:08:31;;;;;;;1.45;1.25;;;10.70;69.70;;;;;;4919725;29;20119;-75
2020/12/01 11:10:57;;;;;;;1.95;1.75;;;10.70;69.70;;;;;;4922236;29;20039;-74
2020/12/01 11:13:23;;;;;;;2.17;1.77;;;10.70;69.70;;;;;;4923011;28;20115;-75
2020/12/01 11:15:48;;;;;;;1.52;1.33;;;10.70;69.70;;;;;;4921406;28;20044;-75
2020/12/01 11:18:14;;;;;;;1.70;1.60;;;10.80;69.80;;;;;;4917909;28;20619;-76
2020/12/01 11:20:40;;;;;;;1.25;1.13;;;10.80;69.80;;;;;;4921077;28;20595;-76
2020/12/01 11:23:05;;;;;;;0.85;0.82;;;10.80;69.80;;;;;;4921775;28;20095;-75
2020/12/01 11:25:31;;;;;;;1.50;1.35;;;10.80;69.80;;;;;;4919842;28;20040;-76
2020/12/01 11:27:56;;;;;;;1.20;1.10;;;10.80;69.80;;;;;;4924381;28;20109;-75
2020/12/01 11:30:23;;;;;;;3.55;1.60;;;10.80;69.80;;;;;;4920691;29;20039;-76
2020/12/01 11:32:49;;;;;;;1.13;1.02;;;10.80;69.70;;;;;;4917608;29;20413;-75
2020/12/01 11:35:16;;;;;;;1.40;1.10;;;10.90;69.60;;;;;;4921375;29;20032;-76
2020/12/01 11:37:42;;;;;;;1.15;0.80;;;10.80;69.50;;;;;;4918981;29;20032;-76
2020/12/01 11:40:09;;;;;;;0.80;0.80;;;10.90;69.40;;;;;;4921594;29;20051;-75
2020/12/01 11:42:35;;;;;;;0.80;0.80;;;10.90;69.40;;;;;;4920236;29;20058;-76
2020/12/01 11:45:00;;;;;;;0.90;0.80;;;10.80;69.30;;;;;;4923079;29;20028;-77
2020/12/01 11:47:26;;;;;;;0.98;0.88;;;10.90;69.40;;;;;;4918370;29;20064;-77
2020/12/01 11:49:51;;;;;;;0.90;0.77;;;10.90;69.40;;;;;;4916279;29;20646;-77
2020/12/01 11:52:17;;;;;;;1.00;0.90;;;10.80;69.20;;;;;;4919667;29;20111;-76
2020/12/01 11:54:42;;;;;;;0.70;0.65;;;10.70;69.10;;;;;;4920950;29;20493;-77
2020/12/01 11:57:08;;;;;;;0.50;0.50;;;10.80;69.20;;;;;;4919154;29;20569;-77
2020/12/01 11:59:33;;;;;;;0.90;0.80;;;10.80;69.30;;;;;;4919647;29;20128;-77
2020/12/01 12:01:59;;;;;;;0.90;0.70;;;10.70;69.80;;;;;;4920255;29;20055;-77
2020/12/01 12:04:24;;;;;;;0.90;0.70;;;10.70;69.30;;;;;;4917390;29;20040;-77
2020/12/01 12:06:50;;;;;;;0.95;0.57;;;10.70;69.30;;;;;;4921756;29;20083;-76
2020/12/01 12:09:16;;;;;;;0.70;0.70;;;10.80;69.40;;;;;;4923848;29;20031;-77
2020/12/01 12:11:41;;;;;;;1.20;1.10;;;10.70;69.30;;;;;;4923276;29;20035;-78
2020/12/01 12:14:07;;;;;;;1.40;1.17;;;10.70;69.30;;;;;;4924731;29;20035;-77
2020/12/01 12:16:32;;;;;;;1.27;1.17;;;10.70;69.30;;;;;;4924400;29;20031;-78
2020/12/01 12:18:59;;;;;;;1.73;1.20;;;10.60;69.10;;;;;;4921895;29;20043;-78
2020/12/01 12:21:24;;;;;;;1.05;0.90;;;10.60;69.10;;;;;;4922590;29;20035;-78
2020/12/01 12:23:50;;;;;;;1.00;0.90;;;10.60;69.10;;;;;;4923064;28;20031;-77
2020/12/01 12:26:28;;;;;;;1.90;1.45;;;10.50;69.10;;;;;;4937182;28;20054;-77
2020/12/01 12:28:53;;;;;;;1.45;1.15;;;10.60;69.40;;;;;;4934447;28;20024;-77
2020/12/01 12:31:20;;;;;;;1.25;1.00;;;10.60;69.10;;;;;;4935419;28;20087;-78
2020/12/01 12:33:45;;;;;;;1.30;1.15;;;10.70;69.20;;;;;;4913678;29;20047;-77
2020/12/01 12:36:12;;;;;;;1.85;1.50;;;10.50;69.10;;;;;;4921106;29;20039;-77
2020/12/01 12:38:38;;;;;;;1.00;0.90;;;10.50;69.20;;;;;;4922922;28;20043;-77
2020/12/01 12:41:04;;;;;;;1.10;1.00;;;10.50;69.30;;;;;;4920323;29;20040;-81
2020/12/01 12:43:30;;;;;;;1.58;1.13;;;10.50;69.40;;;;;;4917054;29;20032;-77
2020/12/01 12:45:56;;;;;;;1.25;1.15;;;10.50;69.60;;;;;;4922899;29;20122;-80
2020/12/01 12:48:23;;;;;;;1.50;1.35;;;10.50;69.50;;;;;;4917248;29;20119;-82
2020/12/01 12:50:49;;;;;;;1.40;1.30;;;10.60;69.60;;;;;;4939299;28;20063;-79
2020/12/01 12:53:15;;;;;;;2.60;1.65;;;10.60;69.60;;;;;;4942056;28;20050;-79
2020/12/01 12:55:41;;;;;;;3.15;1.48;;;10.50;69.50;;;;;;4923581;29;20028;-79
2020/12/01 12:58:06;;;;;;;2.42;1.80;;;10.50;69.40;;;;;;4922758;29;20044;-80
2020/12/01 13:00:32;;;;;;;1.65;1.33;;;10.60;69.40;;;;;;4920941;29;20040;-78
2020/12/01 13:02:58;;;;;;;1.40;1.25;;;10.50;69.80;;;;;;4920307;29;20140;-79
2020/12/01 13:05:24;;;;;;;1.77;1.50;;;10.60;69.30;;;;;;4924021;29;20055;-79
2020/12/01 13:07:50;;;;;;;2.00;1.38;;;10.50;69.30;;;;;;4923052;29;20063;-77
2020/12/01 13:10:16;;;;;;;2.85;1.50;;;10.50;69.20;;;;;;4928265;29;20040;-81
2020/12/01 13:12:42;;;;;;;2.10;1.58;;;10.50;69.20;;;;;;4925312;29;20169;-82
2020/12/01 13:15:09;;;;;;;2.60;2.03;;;10.50;69.20;;;;;;4922213;29;20083;-79
2020/12/01 13:17:35;;;;;;;3.03;2.20;;;10.50;69.20;;;;;;4921649;29;20043;-80
2020/12/01 13:20:00;;;;;;;2.70;1.77;;;10.50;69.10;;;;;;4923696;29;20036;-80
2020/12/01 13:22:26;;;;;;;2.42;1.85;;;10.40;69.10;;;;;;4927156;29;20044;-80
2020/12/01 13:24:51;;;;;;;2.35;1.60;;;10.40;69.70;;;;;;4926986;29;20039;-79
2020/12/01 13:27:17;;;;;;;4.05;2.90;;;10.40;69.10;;;;;;4926991;29;20047;-79
2020/12/01 13:29:44;;;;;;;2.25;1.80;;;10.40;69.00;;;;;;4942170;29;20037;-80
2020/12/01 13:32:09;;;;;;;3.13;2.08;;;10.40;69.00;;;;;;4929078;29;20032;-80
2020/12/01 13:34:35;;;;;;;3.03;2.38;;;10.30;69.00;;;;;;4940937;28;20046;-78
2020/12/01 13:37:00;;;;;;;3.20;2.78;;;10.30;69.00;;;;;;4951221;28;20095;-80
2020/12/01 13:39:26;;;;;;;3.33;2.53;;;10.30;69.20;;;;;;4951698;28;20042;-80
2020/12/01 13:41:53;;;;;;;3.08;2.72;;;10.30;69.30;;;;;;4949297;28;20036;-81
2020/12/01 13:44:20;;;;;;;2.35;2.05;;;10.30;69.40;;;;;;4943294;28;20032;-81
2020/12/01 13:46:45;;;;;;;2.70;2.17;;;10.30;69.40;;;;;;4927945;29;22355;-81
2020/12/01 13:49:13;;;;;;;3.08;2.30;;;10.30;69.40;;;;;;4932873;28;20036;-81
2020/12/01 13:51:38;;;;;;;3.28;2.75;;;10.50;69.50;;;;;;4933022;29;20140;-81